sensor_id;sensor_type;location;lat;lon;timestamp;temperature;humidity
16655;DHT22;8441;51.344;7.022;2023-01-19T00:02:19;0.90;99.90
16655;DHT22;8441;51.344;7.022;2023-01-19T00:04:46;0.90;99.90
16655;DHT22;8441;51.344;7.022;2023-01-19T00:07:14;0.90;99.90
16655;DHT22;8441;51.344;7.022;2023-01-19T00:09:41;0.90;99.90
16655;DHT22;8441;51.344;7.022;2023-01-19T00:12:09;0.90;99.90
16655;DHT22;8441;51.344;7.022;2023-01-19T00:14:38;0.90;99.90
16655;DHT22;8441;51.344;7.022;2023-01-19T00:17:06;0.90;99.90
16655;DHT22;8441;51.344;7.022;2023-01-19T00:19:33;0.90;99.90
16655;DHT22;8441;51.344;7.022;2023-01-19T00:22:00;0.90;99.90
16655;DHT22;8441;51.344;7.022;2023-01-19T00:24:31;0.90;99.90
16655;DHT22;8441;51.344;7.022;2023-01-19T00:26:59;1.00;99.90
16655;DHT22;8441;51.344;7.022;2023-01-19T00:29:28;1.00;99.90
16655;DHT22;8441;51.344;7.022;2023-01-19T00:31:59;1.00;99.90
16655;DHT22;8441;51.344;7.022;2023-01-19T00:34:27;1.00;99.90
16655;DHT22;8441;51.344;7.022;2023-01-19T00:37:04;1.00;99.90
16655;DHT22;8441;51.344;7.022;2023-01-19T00:39:31;1.00;99.90
16655;DHT22;8441;51.344;7.022;2023-01-19T00:41:58;1.00;99.90
16655;DHT22;8441;51.344;7.022;2023-01-19T00:44:43;1.00;99.90
16655;DHT22;8441;51.344;7.022;2023-01-19T00:47:11;1.10;99.90
16655;DHT22;8441;51.344;7.022;2023-01-19T00:49:39;1.00;99.90
16655;DHT22;8441;51.344;7.022;2023-01-19T00:52:06;1.00;99.90
16655;DHT22;8441;51.344;7.022;2023-01-19T00:54:33;1.00;99.90
16655;DHT22;8441;51.344;7.022;2023-01-19T00:57:01;1.00;99.90
16655;DHT22;8441;51.344;7.022;2023-01-19T00:59:28;1.10;99.90
16655;DHT22;8441;51.344;7.022;2023-01-19T01:01:55;1.10;99.90
16655;DHT22;8441;51.344;7.022;2023-01-19T01:04:24;1.10;99.90
16655;DHT22;8441;51.344;7.022;2023-01-19T01:06:51;1.10;99.90
16655;DHT22;8441;51.344;7.022;2023-01-19T01:09:18;1.10;99.90
16655;DHT22;8441;51.344;7.022;2023-01-19T01:11:45;1.10;99.90
16655;DHT22;8441;51.344;7.022;2023-01-19T01:14:15;1.10;99.90
16655;DHT22;8441;51.344;7.022;2023-01-19T01:16:43;1.20;99.90
16655;DHT22;8441;51.344;7.022;2023-01-19T01:19:10;1.20;99.90
16655;DHT22;8441;51.344;7.022;2023-01-19T01:21:39;1.20;99.90
16655;DHT22;8441;51.344;7.022;2023-01-19T01:24:07;1.20;99.90
16655;DHT22;8441;51.344;7.022;2023-01-19T01:26:34;1.10;99.90
16655;DHT22;8441;51.344;7.022;2023-01-19T01:29:02;1.20;99.90
16655;DHT22;8441;51.344;7.022;2023-01-19T01:31:30;1.10;99.90
16655;DHT22;8441;51.344;7.022;2023-01-19T01:34:00;1.20;99.90
16655;DHT22;8441;51.344;7.022;2023-01-19T01:36:28;1.20;99.90
16655;DHT22;8441;51.344;7.022;2023-01-19T01:38:59;1.20;99.90
16655;DHT22;8441;51.344;7.022;2023-01-19T01:41:26;1.20;99.90
16655;DHT22;8441;51.344;7.022;2023-01-19T01:43:54;1.20;99.90
16655;DHT22;8441;51.344;7.022;2023-01-19T01:46:24;1.20;99.90
16655;DHT22;8441;51.344;7.022;2023-01-19T01:48:55;1.20;99.90
16655;DHT22;8441;51.344;7.022;2023-01-19T01:51:29;1.20;99.90
16655;DHT22;8441;51.344;7.022;2023-01-19T01:54:07;1.20;99.90
16655;DHT22;8441;51.344;7.022;2023-01-19T01:56:41;1.20;99.90
16655;DHT22;8441;51.344;7.022;2023-01-19T01:59:11;1.20;99.90
16655;DHT22;8441;51.344;7.022;2023-01-19T02:01:51;1.20;99.90
16655;DHT22;8441;51.344;7.022;2023-01-19T02:04:37;1.20;99.90
16655;DHT22;8441;51.344;7.022;2023-01-19T02:07:06;1.20;99.90
16655;DHT22;8441;51.344;7.022;2023-01-19T02:09:51;1.20;99.90
16655;DHT22;8441;51.344;7.022;2023-01-19T02:12:36;1.20;99.90
16655;DHT22;8441;51.344;7.022;2023-01-19T02:15:21;1.20;99.90
16655;DHT22;8441;51.344;7.022;2023-01-19T02:17:48;1.20;99.90
16655;DHT22;8441;51.344;7.022;2023-01-19T02:20:16;1.30;99.90
16655;DHT22;8441;51.344;7.022;2023-01-19T02:22:46;1.30;99.90
16655;DHT22;8441;51.344;7.022;2023-01-19T02:25:17;1.30;99.90
16655;DHT22;8441;51.344;7.022;2023-01-19T02:27:46;1.30;99.90
16655;DHT22;8441;51.344;7.022;2023-01-19T02:30:14;1.30;99.90
16655;DHT22;8441;51.344;7.022;2023-01-19T02:32:42;1.30;99.90
16655;DHT22;8441;51.344;7.022;2023-01-19T02:35:10;1.30;99.90
16655;DHT22;8441;51.344;7.022;2023-01-19T02:37:38;1.30;99.90
16655;DHT22;8441;51.344;7.022;2023-01-19T02:40:11;1.30;99.90
16655;DHT22;8441;51.344;7.022;2023-01-19T02:42:43;1.30;99.90
16655;DHT22;8441;51.344;7.022;2023-01-19T02:45:13;1.30;99.90
16655;DHT22;8441;51.344;7.022;2023-01-19T02:47:43;1.30;99.90
16655;DHT22;8441;51.344;7.022;2023-01-19T02:50:35;1.20;99.90
16655;DHT22;8441;51.344;7.022;2023-01-19T02:53:14;1.20;99.90
16655;DHT22;8441;51.344;7.022;2023-01-19T02:55:47;1.20;99.90
16655;DHT22;8441;51.344;7.022;2023-01-19T02:58:21;1.20;99.90
16655;DHT22;8441;51.344;7.022;2023-01-19T03:00:56;1.20;99.90
16655;DHT22;8441;51.344;7.022;2023-01-19T03:03:30;1.20;99.90
16655;DHT22;8441;51.344;7.022;2023-01-19T03:06:03;1.20;99.90
16655;DHT22;8441;51.344;7.022;2023-01-19T03:08:41;1.20;99.90
16655;DHT22;8441;51.344;7.022;2023-01-19T03:11:10;1.20;99.90
16655;DHT22;8441;51.344;7.022;2023-01-19T03:13:46;1.10;99.90
16655;DHT22;8441;51.344;7.022;2023-01-19T03:16:18;1.10;99.90
16655;DHT22;8441;51.344;7.022;2023-01-19T03:18:50;1.10;99.90
16655;DHT22;8441;51.344;7.022;2023-01-19T03:21:35;1.10;99.90
16655;DHT22;8441;51.344;7.022;2023-01-19T03:24:05;1.00;99.90
16655;DHT22;8441;51.344;7.022;2023-01-19T03:26:39;1.10;99.90
16655;DHT22;8441;51.344;7.022;2023-01-19T03:29:09;1.00;99.90
16655;DHT22;8441;51.344;7.022;2023-01-19T03:31:42;1.10;99.90
16655;DHT22;8441;51.344;7.022;2023-01-19T03:34:12;1.10;99.90
16655;DHT22;8441;51.344;7.022;2023-01-19T03:36:43;1.10;99.90
16655;DHT22;8441;51.344;7.022;2023-01-19T03:39:13;1.20;99.90
16655;DHT22;8441;51.344;7.022;2023-01-19T03:41:42;1.20;99.90
16655;DHT22;8441;51.344;7.022;2023-01-19T03:44:13;1.20;99.90
16655;DHT22;8441;51.344;7.022;2023-01-19T03:46:41;1.20;99.90
16655;DHT22;8441;51.344;7.022;2023-01-19T03:49:09;1.20;99.90
16655;DHT22;8441;51.344;7.022;2023-01-19T03:51:37;1.20;99.90
16655;DHT22;8441;51.344;7.022;2023-01-19T03:54:05;1.30;99.90
16655;DHT22;8441;51.344;7.022;2023-01-19T03:56:32;1.20;99.90
16655;DHT22;8441;51.344;7.022;2023-01-19T03:58:59;1.20;99.90
16655;DHT22;8441;51.344;7.022;2023-01-19T04:01:28;1.20;99.90
16655;DHT22;8441;51.344;7.022;2023-01-19T04:03:55;1.20;99.90
16655;DHT22;8441;51.344;7.022;2023-01-19T04:06:23;1.20;99.90
16655;DHT22;8441;51.344;7.022;2023-01-19T04:08:50;1.20;99.90
16655;DHT22;8441;51.344;7.022;2023-01-19T04:11:17;1.20;99.90
16655;DHT22;8441;51.344;7.022;2023-01-19T04:13:45;1.20;99.90
16655;DHT22;8441;51.344;7.022;2023-01-19T04:16:12;1.20;99.90
16655;DHT22;8441;51.344;7.022;2023-01-19T04:18:46;1.20;99.90
16655;DHT22;8441;51.344;7.022;2023-01-19T04:21:13;1.20;99.90
16655;DHT22;8441;51.344;7.022;2023-01-19T04:23:40;1.10;99.90
16655;DHT22;8441;51.344;7.022;2023-01-19T04:26:09;1.10;99.90
16655;DHT22;8441;51.344;7.022;2023-01-19T04:28:36;1.10;99.90
16655;DHT22;8441;51.344;7.022;2023-01-19T04:31:04;1.10;99.90
16655;DHT22;8441;51.344;7.022;2023-01-19T04:33:32;1.00;99.90
16655;DHT22;8441;51.344;7.022;2023-01-19T04:36:01;1.00;99.90
16655;DHT22;8441;51.344;7.022;2023-01-19T04:38:32;0.90;99.90
16655;DHT22;8441;51.344;7.022;2023-01-19T04:40:59;0.90;99.90
16655;DHT22;8441;51.344;7.022;2023-01-19T04:43:26;1.00;99.90
16655;DHT22;8441;51.344;7.022;2023-01-19T04:45:53;0.90;99.90
16655;DHT22;8441;51.344;7.022;2023-01-19T04:48:20;1.00;99.90
16655;DHT22;8441;51.344;7.022;2023-01-19T04:50:50;1.00;99.90
16655;DHT22;8441;51.344;7.022;2023-01-19T04:53:18;1.00;99.90
16655;DHT22;8441;51.344;7.022;2023-01-19T04:55:46;0.90;99.90
16655;DHT22;8441;51.344;7.022;2023-01-19T04:58:13;0.90;99.90
16655;DHT22;8441;51.344;7.022;2023-01-19T05:00:40;0.90;99.90
16655;DHT22;8441;51.344;7.022;2023-01-19T05:03:07;0.90;99.90
16655;DHT22;8441;51.344;7.022;2023-01-19T05:05:34;0.80;99.90
16655;DHT22;8441;51.344;7.022;2023-01-19T05:08:01;0.90;99.90
16655;DHT22;8441;51.344;7.022;2023-01-19T05:10:30;0.80;99.90
16655;DHT22;8441;51.344;7.022;2023-01-19T05:12:57;0.80;99.90
16655;DHT22;8441;51.344;7.022;2023-01-19T05:15:24;0.90;99.90
16655;DHT22;8441;51.344;7.022;2023-01-19T05:17:51;0.90;99.90
16655;DHT22;8441;51.344;7.022;2023-01-19T05:20:19;0.90;99.90
16655;DHT22;8441;51.344;7.022;2023-01-19T05:22:48;0.90;99.90
16655;DHT22;8441;51.344;7.022;2023-01-19T05:25:17;0.90;99.90
16655;DHT22;8441;51.344;7.022;2023-01-19T05:27:45;0.90;99.90
16655;DHT22;8441;51.344;7.022;2023-01-19T05:30:13;0.90;99.90
16655;DHT22;8441;51.344;7.022;2023-01-19T05:32:40;0.90;99.90
16655;DHT22;8441;51.344;7.022;2023-01-19T05:35:08;0.90;99.90
16655;DHT22;8441;51.344;7.022;2023-01-19T05:37:35;0.80;99.90
16655;DHT22;8441;51.344;7.022;2023-01-19T05:40:03;0.80;99.90
16655;DHT22;8441;51.344;7.022;2023-01-19T05:42:31;0.80;99.90
16655;DHT22;8441;51.344;7.022;2023-01-19T05:45:00;0.90;99.90
16655;DHT22;8441;51.344;7.022;2023-01-19T05:47:28;0.90;99.90
16655;DHT22;8441;51.344;7.022;2023-01-19T05:49:55;0.90;99.90
16655;DHT22;8441;51.344;7.022;2023-01-19T05:52:22;0.90;99.90
16655;DHT22;8441;51.344;7.022;2023-01-19T05:54:51;0.80;99.90
16655;DHT22;8441;51.344;7.022;2023-01-19T05:57:23;0.80;99.90
16655;DHT22;8441;51.344;7.022;2023-01-19T05:59:51;0.80;99.90
16655;DHT22;8441;51.344;7.022;2023-01-19T06:02:19;0.90;99.90
16655;DHT22;8441;51.344;7.022;2023-01-19T06:04:53;0.80;99.90
16655;DHT22;8441;51.344;7.022;2023-01-19T06:07:20;0.80;99.90
16655;DHT22;8441;51.344;7.022;2023-01-19T06:09:48;0.80;99.90
16655;DHT22;8441;51.344;7.022;2023-01-19T06:12:15;0.80;99.90
16655;DHT22;8441;51.344;7.022;2023-01-19T06:14:42;0.80;99.90
16655;DHT22;8441;51.344;7.022;2023-01-19T06:17:09;0.80;99.90
16655;DHT22;8441;51.344;7.022;2023-01-19T06:19:38;0.80;99.90
16655;DHT22;8441;51.344;7.022;2023-01-19T06:22:05;0.80;99.90
16655;DHT22;8441;51.344;7.022;2023-01-19T06:24:37;0.80;99.90
16655;DHT22;8441;51.344;7.022;2023-01-19T06:27:04;0.80;99.90
16655;DHT22;8441;51.344;7.022;2023-01-19T06:29:32;0.80;99.90
16655;DHT22;8441;51.344;7.022;2023-01-19T06:31:59;0.80;99.90
16655;DHT22;8441;51.344;7.022;2023-01-19T06:34:26;0.80;99.90
16655;DHT22;8441;51.344;7.022;2023-01-19T06:36:55;0.70;99.90
16655;DHT22;8441;51.344;7.022;2023-01-19T06:39:22;0.80;99.90
16655;DHT22;8441;51.344;7.022;2023-01-19T06:41:52;0.70;99.90
16655;DHT22;8441;51.344;7.022;2023-01-19T06:44:19;0.70;99.90
16655;DHT22;8441;51.344;7.022;2023-01-19T06:46:46;0.70;99.90
16655;DHT22;8441;51.344;7.022;2023-01-19T06:49:13;0.80;99.90
16655;DHT22;8441;51.344;7.022;2023-01-19T06:51:40;0.70;99.90
16655;DHT22;8441;51.344;7.022;2023-01-19T06:54:09;0.80;99.90
16655;DHT22;8441;51.344;7.022;2023-01-19T06:56:36;0.80;99.90
16655;DHT22;8441;51.344;7.022;2023-01-19T06:59:04;0.80;99.90
16655;DHT22;8441;51.344;7.022;2023-01-19T07:01:31;0.80;99.90
16655;DHT22;8441;51.344;7.022;2023-01-19T07:03:58;0.80;99.90
16655;DHT22;8441;51.344;7.022;2023-01-19T07:06:25;0.80;99.90
16655;DHT22;8441;51.344;7.022;2023-01-19T07:08:53;0.80;99.90
16655;DHT22;8441;51.344;7.022;2023-01-19T07:11:22;0.80;99.90
16655;DHT22;8441;51.344;7.022;2023-01-19T07:13:53;0.80;99.90
16655;DHT22;8441;51.344;7.022;2023-01-19T07:16:20;0.80;99.90
16655;DHT22;8441;51.344;7.022;2023-01-19T07:18:48;0.80;99.90
16655;DHT22;8441;51.344;7.022;2023-01-19T07:21:15;0.80;99.90
16655;DHT22;8441;51.344;7.022;2023-01-19T07:23:43;0.80;99.90
16655;DHT22;8441;51.344;7.022;2023-01-19T07:26:13;0.80;99.90
16655;DHT22;8441;51.344;7.022;2023-01-19T07:28:44;0.80;99.90
16655;DHT22;8441;51.344;7.022;2023-01-19T07:31:11;0.90;99.90
16655;DHT22;8441;51.344;7.022;2023-01-19T07:33:39;0.90;99.90
16655;DHT22;8441;51.344;7.022;2023-01-19T07:36:07;0.90;99.90
16655;DHT22;8441;51.344;7.022;2023-01-19T07:38:34;0.90;99.90
16655;DHT22;8441;51.344;7.022;2023-01-19T07:41:01;0.90;99.90
16655;DHT22;8441;51.344;7.022;2023-01-19T07:43:29;0.90;99.90
16655;DHT22;8441;51.344;7.022;2023-01-19T07:45:58;0.90;99.90
16655;DHT22;8441;51.344;7.022;2023-01-19T07:48:26;0.90;99.90
16655;DHT22;8441;51.344;7.022;2023-01-19T07:50:57;0.90;99.90
16655;DHT22;8441;51.344;7.022;2023-01-19T07:53:25;0.90;99.90
16655;DHT22;8441;51.344;7.022;2023-01-19T07:55:53;0.90;99.90
16655;DHT22;8441;51.344;7.022;2023-01-19T07:58:21;1.00;99.90
16655;DHT22;8441;51.344;7.022;2023-01-19T08:00:48;1.00;99.90
16655;DHT22;8441;51.344;7.022;2023-01-19T08:03:17;1.00;99.90
16655;DHT22;8441;51.344;7.022;2023-01-19T08:05:49;1.00;99.90
16655;DHT22;8441;51.344;7.022;2023-01-19T08:08:17;1.00;99.90
16655;DHT22;8441;51.344;7.022;2023-01-19T08:10:44;1.00;99.90
16655;DHT22;8441;51.344;7.022;2023-01-19T08:13:11;1.00;99.90
16655;DHT22;8441;51.344;7.022;2023-01-19T08:15:39;1.00;99.90
16655;DHT22;8441;51.344;7.022;2023-01-19T08:18:06;1.10;99.90
16655;DHT22;8441;51.344;7.022;2023-01-19T08:20:36;1.10;99.90
16655;DHT22;8441;51.344;7.022;2023-01-19T08:23:03;1.10;99.90
16655;DHT22;8441;51.344;7.022;2023-01-19T08:25:35;1.10;99.90
16655;DHT22;8441;51.344;7.022;2023-01-19T08:28:04;1.20;99.90
16655;DHT22;8441;51.344;7.022;2023-01-19T08:30:31;1.20;99.90
16655;DHT22;8441;51.344;7.022;2023-01-19T08:32:59;1.20;99.90
16655;DHT22;8441;51.344;7.022;2023-01-19T08:35:33;1.20;99.90
16655;DHT22;8441;51.344;7.022;2023-01-19T08:38:03;1.30;99.90
16655;DHT22;8441;51.344;7.022;2023-01-19T08:40:31;1.30;99.90
16655;DHT22;8441;51.344;7.022;2023-01-19T08:43:00;1.20;99.90
16655;DHT22;8441;51.344;7.022;2023-01-19T08:45:31;1.20;99.90
16655;DHT22;8441;51.344;7.022;2023-01-19T08:47:58;1.30;99.90
16655;DHT22;8441;51.344;7.022;2023-01-19T08:50:26;1.30;99.90
16655;DHT22;8441;51.344;7.022;2023-01-19T08:52:55;1.30;99.90
16655;DHT22;8441;51.344;7.022;2023-01-19T08:55:24;1.40;99.90
16655;DHT22;8441;51.344;7.022;2023-01-19T08:57:51;1.40;99.90
16655;DHT22;8441;51.344;7.022;2023-01-19T09:00:19;1.30;99.90
16655;DHT22;8441;51.344;7.022;2023-01-19T09:02:47;1.40;99.90
16655;DHT22;8441;51.344;7.022;2023-01-19T09:05:14;1.50;99.90
16655;DHT22;8441;51.344;7.022;2023-01-19T09:07:42;1.40;99.90
16655;DHT22;8441;51.344;7.022;2023-01-19T09:10:10;1.40;99.90
16655;DHT22;8441;51.344;7.022;2023-01-19T09:12:39;1.40;99.90
16655;DHT22;8441;51.344;7.022;2023-01-19T09:15:08;1.40;99.90
16655;DHT22;8441;51.344;7.022;2023-01-19T09:17:38;1.40;99.90
16655;DHT22;8441;51.344;7.022;2023-01-19T09:20:06;1.40;99.90
16655;DHT22;8441;51.344;7.022;2023-01-19T09:22:34;1.40;99.90
16655;DHT22;8441;51.344;7.022;2023-01-19T09:25:01;1.40;99.90
16655;DHT22;8441;51.344;7.022;2023-01-19T09:27:28;1.50;99.90
16655;DHT22;8441;51.344;7.022;2023-01-19T09:29:56;1.50;99.90
16655;DHT22;8441;51.344;7.022;2023-01-19T09:32:24;1.50;99.90
16655;DHT22;8441;51.344;7.022;2023-01-19T09:34:51;1.50;99.90
16655;DHT22;8441;51.344;7.022;2023-01-19T09:37:19;1.50;99.90
16655;DHT22;8441;51.344;7.022;2023-01-19T09:39:46;1.60;99.90
16655;DHT22;8441;51.344;7.022;2023-01-19T09:42:20;1.70;99.90
16655;DHT22;8441;51.344;7.022;2023-01-19T09:44:49;1.70;99.90
16655;DHT22;8441;51.344;7.022;2023-01-19T09:47:23;1.70;99.90
16655;DHT22;8441;51.344;7.022;2023-01-19T09:49:56;1.60;99.90
16655;DHT22;8441;51.344;7.022;2023-01-19T09:52:24;1.70;99.90
16655;DHT22;8441;51.344;7.022;2023-01-19T09:54:54;1.70;99.90
16655;DHT22;8441;51.344;7.022;2023-01-19T09:57:22;1.70;99.90
16655;DHT22;8441;51.344;7.022;2023-01-19T09:59:50;1.80;99.90
16655;DHT22;8441;51.344;7.022;2023-01-19T10:02:32;1.80;99.90
16655;DHT22;8441;51.344;7.022;2023-01-19T10:05:03;1.80;99.90
16655;DHT22;8441;51.344;7.022;2023-01-19T10:07:41;1.90;99.90
16655;DHT22;8441;51.344;7.022;2023-01-19T10:10:19;1.90;99.90
16655;DHT22;8441;51.344;7.022;2023-01-19T10:12:58;1.90;99.90
16655;DHT22;8441;51.344;7.022;2023-01-19T10:15:44;1.90;99.90
16655;DHT22;8441;51.344;7.022;2023-01-19T10:18:16;1.70;99.90
16655;DHT22;8441;51.344;7.022;2023-01-19T10:20:48;1.70;99.90
16655;DHT22;8441;51.344;7.022;2023-01-19T10:23:34;1.60;99.90
16655;DHT22;8441;51.344;7.022;2023-01-19T10:26:08;1.60;99.90
16655;DHT22;8441;51.344;7.022;2023-01-19T10:28:36;1.60;99.90
16655;DHT22;8441;51.344;7.022;2023-01-19T10:31:04;1.60;99.90
16655;DHT22;8441;51.344;7.022;2023-01-19T10:33:37;1.60;99.90
16655;DHT22;8441;51.344;7.022;2023-01-19T10:36:09;1.60;99.90
16655;DHT22;8441;51.344;7.022;2023-01-19T10:38:41;1.60;99.90
16655;DHT22;8441;51.344;7.022;2023-01-19T10:41:13;1.60;99.90
16655;DHT22;8441;51.344;7.022;2023-01-19T10:43:42;1.60;99.90
16655;DHT22;8441;51.344;7.022;2023-01-19T10:46:33;1.60;99.90
16655;DHT22;8441;51.344;7.022;2023-01-19T10:49:04;1.70;99.90
16655;DHT22;8441;51.344;7.022;2023-01-19T10:51:32;1.70;99.90
16655;DHT22;8441;51.344;7.022;2023-01-19T10:54:01;1.80;99.90
16655;DHT22;8441;51.344;7.022;2023-01-19T10:56:33;1.80;99.90
16655;DHT22;8441;51.344;7.022;2023-01-19T10:59:03;1.80;99.90
16655;DHT22;8441;51.344;7.022;2023-01-19T11:01:31;1.80;99.90
16655;DHT22;8441;51.344;7.022;2023-01-19T11:04:19;1.80;99.90
16655;DHT22;8441;51.344;7.022;2023-01-19T11:06:47;1.80;99.90
16655;DHT22;8441;51.344;7.022;2023-01-19T11:09:18;1.80;99.90
16655;DHT22;8441;51.344;7.022;2023-01-19T11:11:48;1.90;99.90
16655;DHT22;8441;51.344;7.022;2023-01-19T11:14:18;1.90;99.90
16655;DHT22;8441;51.344;7.022;2023-01-19T11:16:48;1.90;99.90
16655;DHT22;8441;51.344;7.022;2023-01-19T11:19:27;2.00;99.90
16655;DHT22;8441;51.344;7.022;2023-01-19T11:22:09;2.00;99.90
16655;DHT22;8441;51.344;7.022;2023-01-19T11:24:38;2.00;99.90
16655;DHT22;8441;51.344;7.022;2023-01-19T11:27:05;2.00;99.90
16655;DHT22;8441;51.344;7.022;2023-01-19T11:29:33;1.90;99.90
16655;DHT22;8441;51.344;7.022;2023-01-19T11:32:10;2.00;99.90
16655;DHT22;8441;51.344;7.022;2023-01-19T11:34:39;2.00;99.90
16655;DHT22;8441;51.344;7.022;2023-01-19T11:37:25;2.10;99.90
16655;DHT22;8441;51.344;7.022;2023-01-19T11:39:56;2.10;99.90
16655;DHT22;8441;51.344;7.022;2023-01-19T11:42:24;2.20;99.90
16655;DHT22;8441;51.344;7.022;2023-01-19T11:44:59;2.20;99.90
16655;DHT22;8441;51.344;7.022;2023-01-19T11:47:31;2.10;99.90
16655;DHT22;8441;51.344;7.022;2023-01-19T11:50:05;2.10;99.90
16655;DHT22;8441;51.344;7.022;2023-01-19T11:52:35;2.10;99.90
16655;DHT22;8441;51.344;7.022;2023-01-19T11:55:09;2.10;99.90
16655;DHT22;8441;51.344;7.022;2023-01-19T11:57:44;2.10;99.90
16655;DHT22;8441;51.344;7.022;2023-01-19T12:00:21;2.00;99.90
16655;DHT22;8441;51.344;7.022;2023-01-19T12:02:52;2.00;99.90
16655;DHT22;8441;51.344;7.022;2023-01-19T12:05:22;2.00;99.90
16655;DHT22;8441;51.344;7.022;2023-01-19T12:07:52;2.00;99.90
16655;DHT22;8441;51.344;7.022;2023-01-19T12:10:24;2.00;99.90
16655;DHT22;8441;51.344;7.022;2023-01-19T12:12:52;2.10;99.90
16655;DHT22;8441;51.344;7.022;2023-01-19T12:15:24;2.20;99.90
16655;DHT22;8441;51.344;7.022;2023-01-19T12:17:53;2.10;99.90
16655;DHT22;8441;51.344;7.022;2023-01-19T12:20:29;2.20;99.90
16655;DHT22;8441;51.344;7.022;2023-01-19T12:23:10;2.20;99.90
16655;DHT22;8441;51.344;7.022;2023-01-19T12:25:47;2.20;99.90
16655;DHT22;8441;51.344;7.022;2023-01-19T12:28:16;2.10;99.90
16655;DHT22;8441;51.344;7.022;2023-01-19T12:30:44;2.10;99.90
16655;DHT22;8441;51.344;7.022;2023-01-19T12:33:32;2.10;99.90
16655;DHT22;8441;51.344;7.022;2023-01-19T12:36:04;2.10;99.90
16655;DHT22;8441;51.344;7.022;2023-01-19T12:38:45;2.20;99.90
16655;DHT22;8441;51.344;7.022;2023-01-19T12:41:25;2.20;99.90
16655;DHT22;8441;51.344;7.022;2023-01-19T12:44:26;2.30;99.90
16655;DHT22;8441;51.344;7.022;2023-01-19T12:46:56;2.30;99.90
16655;DHT22;8441;51.344;7.022;2023-01-19T12:49:30;2.40;99.90
16655;DHT22;8441;51.344;7.022;2023-01-19T12:52:24;2.40;99.90
16655;DHT22;8441;51.344;7.022;2023-01-19T12:54:57;2.30;99.90
16655;DHT22;8441;51.344;7.022;2023-01-19T12:57:30;2.30;99.90
16655;DHT22;8441;51.344;7.022;2023-01-19T12:59:59;2.30;99.90
16655;DHT22;8441;51.344;7.022;2023-01-19T13:02:45;2.30;99.90
16655;DHT22;8441;51.344;7.022;2023-01-19T13:05:16;2.40;99.90
16655;DHT22;8441;51.344;7.022;2023-01-19T13:08:16;2.40;99.90
16655;DHT22;8441;51.344;7.022;2023-01-19T13:26:03;3.00;99.90
16655;DHT22;8441;51.344;7.022;2023-01-19T13:28:36;3.20;99.90
16655;DHT22;8441;51.344;7.022;2023-01-19T13:31:05;3.30;99.90
16655;DHT22;8441;51.344;7.022;2023-01-19T13:33:41;3.40;99.90
16655;DHT22;8441;51.344;7.022;2023-01-19T13:36:19;3.40;99.90
16655;DHT22;8441;51.344;7.022;2023-01-19T13:38:47;3.40;99.90
16655;DHT22;8441;51.344;7.022;2023-01-19T13:41:20;3.30;99.90
16655;DHT22;8441;51.344;7.022;2023-01-19T13:43:53;3.10;99.90
16655;DHT22;8441;51.344;7.022;2023-01-19T13:46:23;3.10;99.90
16655;DHT22;8441;51.344;7.022;2023-01-19T13:48:53;3.20;99.90
16655;DHT22;8441;51.344;7.022;2023-01-19T13:51:21;3.20;99.90
16655;DHT22;8441;51.344;7.022;2023-01-19T13:53:55;3.10;99.90
16655;DHT22;8441;51.344;7.022;2023-01-19T13:56:25;3.00;99.90
16655;DHT22;8441;51.344;7.022;2023-01-19T13:59:10;3.00;99.90
16655;DHT22;8441;51.344;7.022;2023-01-19T14:01:39;3.00;99.90
16655;DHT22;8441;51.344;7.022;2023-01-19T14:04:24;3.00;99.90
16655;DHT22;8441;51.344;7.022;2023-01-19T14:06:51;3.10;99.90
16655;DHT22;8441;51.344;7.022;2023-01-19T14:09:20;3.10;99.90
16655;DHT22;8441;51.344;7.022;2023-01-19T14:12:06;3.00;99.90
16655;DHT22;8441;51.344;7.022;2023-01-19T14:14:33;2.90;99.90
16655;DHT22;8441;51.344;7.022;2023-01-19T14:17:00;2.90;99.90
16655;DHT22;8441;51.344;7.022;2023-01-19T14:19:27;2.80;99.90
16655;DHT22;8441;51.344;7.022;2023-01-19T14:22:00;2.80;99.90
16655;DHT22;8441;51.344;7.022;2023-01-19T14:24:28;2.70;99.90
16655;DHT22;8441;51.344;7.022;2023-01-19T14:27:15;2.70;99.90
16655;DHT22;8441;51.344;7.022;2023-01-19T14:29:44;2.70;99.90
16655;DHT22;8441;51.344;7.022;2023-01-19T14:32:14;2.70;99.90
16655;DHT22;8441;51.344;7.022;2023-01-19T14:34:43;2.70;99.90
16655;DHT22;8441;51.344;7.022;2023-01-19T14:37:19;2.70;99.90
16655;DHT22;8441;51.344;7.022;2023-01-19T14:39:49;2.70;99.90
16655;DHT22;8441;51.344;7.022;2023-01-19T14:42:26;2.70;99.90
16655;DHT22;8441;51.344;7.022;2023-01-19T14:44:55;2.60;99.90
16655;DHT22;8441;51.344;7.022;2023-01-19T14:47:34;2.60;99.90
16655;DHT22;8441;51.344;7.022;2023-01-19T14:50:07;2.60;99.90
16655;DHT22;8441;51.344;7.022;2023-01-19T14:52:38;2.50;99.90
16655;DHT22;8441;51.344;7.022;2023-01-19T14:55:15;2.60;99.90
16655;DHT22;8441;51.344;7.022;2023-01-19T14:57:47;2.60;99.90
16655;DHT22;8441;51.344;7.022;2023-01-19T15:00:16;2.50;99.90
16655;DHT22;8441;51.344;7.022;2023-01-19T15:02:43;2.60;99.90
16655;DHT22;8441;51.344;7.022;2023-01-19T15:05:11;2.60;99.90
16655;DHT22;8441;51.344;7.022;2023-01-19T15:07:40;2.60;99.90
16655;DHT22;8441;51.344;7.022;2023-01-19T15:10:14;2.60;99.90
16655;DHT22;8441;51.344;7.022;2023-01-19T15:12:42;2.50;99.90
16655;DHT22;8441;51.344;7.022;2023-01-19T15:15:15;2.40;99.90
16655;DHT22;8441;51.344;7.022;2023-01-19T15:17:43;2.30;99.90
16655;DHT22;8441;51.344;7.022;2023-01-19T15:20:14;2.20;99.90
16655;DHT22;8441;51.344;7.022;2023-01-19T15:22:42;2.20;99.90
16655;DHT22;8441;51.344;7.022;2023-01-19T15:25:12;2.20;99.90
16655;DHT22;8441;51.344;7.022;2023-01-19T15:27:40;2.10;99.90
16655;DHT22;8441;51.344;7.022;2023-01-19T15:30:17;2.00;99.90
16655;DHT22;8441;51.344;7.022;2023-01-19T15:32:45;2.00;99.90
16655;DHT22;8441;51.344;7.022;2023-01-19T15:35:17;2.00;99.90
16655;DHT22;8441;51.344;7.022;2023-01-19T15:37:45;2.00;99.90
16655;DHT22;8441;51.344;7.022;2023-01-19T15:40:14;2.00;99.90
16655;DHT22;8441;51.344;7.022;2023-01-19T15:42:41;2.00;99.90
16655;DHT22;8441;51.344;7.022;2023-01-19T15:45:35;2.00;99.90
16655;DHT22;8441;51.344;7.022;2023-01-19T15:48:04;2.00;99.90
16655;DHT22;8441;51.344;7.022;2023-01-19T15:50:32;1.90;99.90
16655;DHT22;8441;51.344;7.022;2023-01-19T15:53:01;1.90;99.90
16655;DHT22;8441;51.344;7.022;2023-01-19T15:55:28;1.90;99.90
16655;DHT22;8441;51.344;7.022;2023-01-19T15:57:57;1.90;99.90
16655;DHT22;8441;51.344;7.022;2023-01-19T16:00:27;1.80;99.90
16655;DHT22;8441;51.344;7.022;2023-01-19T16:02:56;1.80;99.90
16655;DHT22;8441;51.344;7.022;2023-01-19T16:05:24;1.80;99.90
16655;DHT22;8441;51.344;7.022;2023-01-19T16:07:51;1.70;99.90
16655;DHT22;8441;51.344;7.022;2023-01-19T16:10:19;1.80;99.90
16655;DHT22;8441;51.344;7.022;2023-01-19T16:12:46;1.80;99.90
16655;DHT22;8441;51.344;7.022;2023-01-19T16:15:13;1.80;99.90
16655;DHT22;8441;51.344;7.022;2023-01-19T16:17:41;1.70;99.90
16655;DHT22;8441;51.344;7.022;2023-01-19T16:20:10;1.70;99.90
16655;DHT22;8441;51.344;7.022;2023-01-19T16:22:37;1.70;99.90
16655;DHT22;8441;51.344;7.022;2023-01-19T16:25:05;1.70;99.90
16655;DHT22;8441;51.344;7.022;2023-01-19T16:27:32;1.60;99.90
16655;DHT22;8441;51.344;7.022;2023-01-19T16:29:59;1.60;99.90
16655;DHT22;8441;51.344;7.022;2023-01-19T16:32:30;1.60;99.90
16655;DHT22;8441;51.344;7.022;2023-01-19T16:34:58;1.60;99.90
16655;DHT22;8441;51.344;7.022;2023-01-19T16:37:27;1.70;99.90
16655;DHT22;8441;51.344;7.022;2023-01-19T16:39:54;1.60;99.90